Time;durP1;ratioP1;P1;durP2;ratioP2;P2;SDS_P1;SDS_P2;PMS_P1;PMS_P2;Temp;Humidity;BMP_temperature;BMP_pressure;BME280_temperature;BME280_humidity;BME280_pressure;Samples;Min_cycle;Max_cycle;Signal;HPM_P1;HPM_P2
2023/06/16 00:00:11;;;;;;;7.70;6.10;;;20.30;99.90;;;;;;5052707;28;20424;-76
2023/06/16 00:02:44;;;;;;;9.13;6.30;;;20.30;99.90;;;;;;5050706;28;20440;-76
2023/06/16 00:05:12;;;;;;;8.07;6.10;;;20.30;99.90;;;;;;5053456;28;20445;-76
2023/06/16 00:07:39;;;;;;;7.22;6.40;;;20.30;99.90;;;;;;5066950;28;20510;-75
2023/06/16 00:10:09;;;;;;;6.88;6.15;;;20.30;99.90;;;;;;5054275;28;20487;-76
2023/06/16 00:12:37;;;;;;;6.32;5.72;;;20.20;99.90;;;;;;5060114;28;20451;-74
2023/06/16 00:15:04;;;;;;;6.80;6.10;;;20.20;99.90;;;;;;5050546;28;21503;-73
2023/06/16 00:17:30;;;;;;;7.35;6.15;;;20.20;99.90;;;;;;5051021;28;20466;-73
2023/06/16 00:20:00;;;;;;;6.65;6.05;;;20.30;99.90;;;;;;5055885;28;20872;-73
2023/06/16 00:22:27;;;;;;;7.75;5.97;;;20.30;99.90;;;;;;5041306;28;20936;-73
2023/06/16 00:24:53;;;;;;;6.37;5.70;;;20.20;99.90;;;;;;5053154;28;20434;-73
2023/06/16 00:27:22;;;;;;;6.95;5.95;;;20.30;99.90;;;;;;5050091;28;20443;-73
2023/06/16 00:29:50;;;;;;;7.65;5.80;;;20.30;99.90;;;;;;5055096;28;20485;-73
2023/06/16 00:32:17;;;;;;;7.50;6.00;;;20.30;99.90;;;;;;5044735;28;20411;-76
2023/06/16 00:34:43;;;;;;;8.68;5.75;;;20.30;99.90;;;;;;5053197;28;21407;-76
2023/06/16 00:37:10;;;;;;;6.45;5.78;;;20.30;99.90;;;;;;5051546;28;20413;-76
2023/06/16 00:39:36;;;;;;;6.72;5.70;;;20.30;99.90;;;;;;5053784;28;20952;-76
2023/06/16 00:42:02;;;;;;;6.57;5.90;;;20.30;99.90;;;;;;5055582;28;20506;-76
2023/06/16 00:44:29;;;;;;;6.53;5.80;;;20.30;99.90;;;;;;5048255;28;20897;-76
2023/06/16 00:46:55;;;;;;;7.85;5.60;;;20.40;99.90;;;;;;5050493;28;20507;-76
2023/06/16 00:49:21;;;;;;;6.57;5.32;;;20.30;99.90;;;;;;5037255;28;20977;-76
2023/06/16 00:51:49;;;;;;;7.28;5.40;;;20.30;99.90;;;;;;5049530;28;20434;-76
2023/06/16 00:54:16;;;;;;;7.03;5.50;;;20.20;99.90;;;;;;5047171;28;20465;-75
2023/06/16 00:56:45;;;;;;;8.50;5.38;;;20.20;99.90;;;;;;5048614;28;20938;-74
2023/06/16 00:59:11;;;;;;;6.20;5.43;;;20.20;99.90;;;;;;5053863;28;20419;-75
2023/06/16 01:01:39;;;;;;;6.10;5.50;;;20.20;99.90;;;;;;5049265;28;20948;-75
2023/06/16 01:04:05;;;;;;;6.03;5.28;;;20.20;99.90;;;;;;5039494;28;20818;-75
2023/06/16 01:06:41;;;;;;;5.88;5.28;;;20.30;99.90;;;;;;5053673;28;20572;-75
2023/06/16 01:09:41;;;;;;;6.57;5.40;;;20.20;99.90;;;;;;5057290;28;20423;-75
2023/06/16 01:12:39;;;;;;;6.28;5.60;;;20.20;99.90;;;;;;5066606;28;20460;-75
2023/06/16 01:15:18;;;;;;;6.00;5.40;;;20.10;99.90;;;;;;5053189;28;20403;-75
2023/06/16 01:17:50;;;;;;;5.83;5.00;;;20.10;99.90;;;;;;5046331;28;20428;-74
2023/06/16 01:20:37;;;;;;;5.57;5.05;;;20.10;99.90;;;;;;5051000;28;20463;-75
2023/06/16 01:23:40;;;;;;;5.80;4.95;;;20.10;99.90;;;;;;5065612;28;20453;-76
2023/06/16 01:26:10;;;;;;;6.32;5.22;;;20.00;99.90;;;;;;5047683;28;20420;-76
2023/06/16 01:28:40;;;;;;;7.60;5.33;;;20.10;99.90;;;;;;5047212;28;20478;-76
2023/06/16 01:31:12;;;;;;;7.03;5.10;;;20.00;99.90;;;;;;5052889;28;20408;-75
2023/06/16 01:33:40;;;;;;;5.95;5.20;;;20.00;99.90;;;;;;5051583;28;20421;-76
2023/06/16 01:36:08;;;;;;;5.68;5.18;;;19.90;99.90;;;;;;5052211;28;20416;-76
2023/06/16 01:38:36;;;;;;;5.47;4.97;;;19.80;99.90;;;;;;5054100;28;20511;-76
2023/06/16 01:41:03;;;;;;;6.60;5.30;;;19.80;99.90;;;;;;5049876;28;20551;-76
2023/06/16 01:43:31;;;;;;;6.68;5.20;;;19.80;99.90;;;;;;5048289;28;20412;-76
2023/06/16 01:45:58;;;;;;;6.90;5.07;;;19.80;99.90;;;;;;5049862;28;20454;-74
2023/06/16 01:48:25;;;;;;;5.97;5.28;;;19.80;99.90;;;;;;5048280;28;20503;-74
2023/06/16 01:50:52;;;;;;;6.53;5.47;;;19.80;99.90;;;;;;5063786;28;20425;-75
2023/06/16 01:53:18;;;;;;;6.20;5.30;;;19.80;99.90;;;;;;5053453;28;20418;-75
2023/06/16 01:55:50;;;;;;;6.13;4.85;;;19.70;99.90;;;;;;5048712;28;20441;-76
2023/06/16 01:58:23;;;;;;;6.00;5.30;;;19.60;99.90;;;;;;5047763;28;20419;-76
2023/06/16 02:01:07;;;;;;;6.03;5.22;;;19.70;99.90;;;;;;5047214;28;20462;-75
2023/06/16 02:03:50;;;;;;;7.00;5.20;;;19.70;99.90;;;;;;5050650;28;20522;-75
2023/06/16 02:06:28;;;;;;;5.90;5.40;;;19.70;99.90;;;;;;5048927;28;21464;-75
2023/06/16 02:09:02;;;;;;;6.57;5.53;;;19.70;99.90;;;;;;5051551;28;20423;-76
2023/06/16 02:11:30;;;;;;;5.80;5.30;;;19.70;99.90;;;;;;5050463;28;20411;-76
2023/06/16 02:13:57;;;;;;;6.00;5.40;;;19.60;99.90;;;;;;5048873;28;20498;-75
2023/06/16 02:16:24;;;;;;;6.22;5.43;;;19.60;99.90;;;;;;5050235;28;20450;-75
2023/06/16 02:18:53;;;;;;;6.13;5.32;;;19.60;99.90;;;;;;5065556;28;20585;-76
2023/06/16 02:21:21;;;;;;;7.85;5.38;;;19.60;99.90;;;;;;5036112;28;20431;-76
2023/06/16 02:23:47;;;;;;;5.95;5.35;;;19.60;99.90;;;;;;5048835;28;20427;-76
2023/06/16 02:26:13;;;;;;;6.53;5.25;;;19.60;99.90;;;;;;5070726;28;20452;-76
2023/06/16 02:28:40;;;;;;;7.32;5.50;;;19.60;99.90;;;;;;5064498;28;20423;-76
2023/06/16 02:31:06;;;;;;;5.90;5.30;;;19.60;99.90;;;;;;5049394;28;20535;-75
2023/06/16 02:33:32;;;;;;;7.75;5.50;;;19.60;99.90;;;;;;5050968;28;20837;-76
2023/06/16 02:35:58;;;;;;;7.07;5.55;;;19.60;99.90;;;;;;5048548;28;20411;-76
2023/06/16 02:38:25;;;;;;;6.57;5.45;;;19.70;99.90;;;;;;5049227;28;20908;-75
2023/06/16 02:40:51;;;;;;;6.20;5.60;;;19.70;99.90;;;;;;5054811;28;20413;-76
2023/06/16 02:43:18;;;;;;;8.57;5.40;;;19.70;99.90;;;;;;5052188;28;20502;-76
2023/06/16 02:45:44;;;;;;;6.00;5.40;;;19.70;99.90;;;;;;5049208;28;21041;-76
2023/06/16 02:48:11;;;;;;;6.38;5.40;;;19.70;99.90;;;;;;5049641;28;20417;-76
2023/06/16 02:50:39;;;;;;;7.50;5.40;;;19.70;99.90;;;;;;5049313;28;20962;-76
2023/06/16 02:53:05;;;;;;;6.82;5.45;;;19.70;99.90;;;;;;5047514;28;20962;-76
2023/06/16 02:55:32;;;;;;;8.07;5.73;;;19.80;99.90;;;;;;5064009;28;21478;-76
2023/06/16 02:57:58;;;;;;;6.20;5.60;;;19.80;99.90;;;;;;5035658;28;20408;-76
2023/06/16 03:00:25;;;;;;;6.15;5.40;;;19.80;99.90;;;;;;5043618;28;20489;-75
2023/06/16 03:02:51;;;;;;;6.25;5.63;;;19.90;99.90;;;;;;5048001;28;20430;-74
2023/06/16 03:05:18;;;;;;;6.80;5.80;;;19.80;99.90;;;;;;5049604;28;20450;-75
2023/06/16 03:07:44;;;;;;;6.22;5.63;;;19.90;99.90;;;;;;5052206;28;20509;-74
2023/06/16 03:10:11;;;;;;;6.35;5.63;;;19.80;99.90;;;;;;5033560;28;20436;-74
2023/06/16 03:12:38;;;;;;;6.32;5.70;;;19.80;99.90;;;;;;5049711;28;20417;-75
2023/06/16 03:15:05;;;;;;;6.70;5.80;;;19.90;99.90;;;;;;5056025;28;20522;-74
2023/06/16 03:17:32;;;;;;;5.82;5.32;;;19.80;99.90;;;;;;5053731;28;20414;-74
2023/06/16 03:19:58;;;;;;;6.32;5.60;;;19.90;99.90;;;;;;5050861;28;20423;-74
2023/06/16 03:22:24;;;;;;;6.25;5.65;;;19.90;99.90;;;;;;5047308;28;20417;-74
2023/06/16 03:24:51;;;;;;;6.60;5.87;;;19.90;99.90;;;;;;5049050;28;20425;-74
2023/06/16 03:27:17;;;;;;;7.13;5.85;;;19.90;99.90;;;;;;5051874;28;21110;-74
2023/06/16 03:29:43;;;;;;;6.70;6.00;;;20.00;99.90;;;;;;5052915;28;20402;-74
2023/06/16 03:32:09;;;;;;;6.47;5.88;;;20.00;99.90;;;;;;5056796;28;20534;-75
2023/06/16 03:34:36;;;;;;;7.10;6.10;;;20.00;99.90;;;;;;5050620;28;20417;-74
2023/06/16 03:37:03;;;;;;;6.65;6.03;;;20.00;99.90;;;;;;5041030;28;22185;-75
2023/06/16 03:39:29;;;;;;;6.80;5.90;;;20.00;99.90;;;;;;5040185;28;20416;-75
2023/06/16 03:41:55;;;;;;;7.73;6.40;;;20.00;99.90;;;;;;5057725;28;20417;-74
2023/06/16 03:44:22;;;;;;;7.13;6.10;;;20.00;99.90;;;;;;5050337;28;20428;-75
2023/06/16 03:46:48;;;;;;;6.90;6.20;;;20.10;99.90;;;;;;5061015;28;20503;-75
2023/06/16 03:49:14;;;;;;;6.68;5.97;;;20.10;99.90;;;;;;5059376;28;20430;-75
2023/06/16 03:51:41;;;;;;;6.60;6.00;;;20.10;99.90;;;;;;5037142;28;20415;-75
2023/06/16 03:54:07;;;;;;;7.28;6.20;;;20.10;99.90;;;;;;5054323;28;20446;-75
2023/06/16 03:56:33;;;;;;;7.15;6.10;;;20.10;99.90;;;;;;5052142;28;20423;-75
2023/06/16 03:58:59;;;;;;;6.70;6.10;;;20.10;99.90;;;;;;5051498;28;20446;-75
2023/06/16 04:01:26;;;;;;;6.60;5.80;;;20.20;99.90;;;;;;5053094;28;20419;-76
2023/06/16 04:03:52;;;;;;;7.63;6.15;;;20.20;99.90;;;;;;5051639;28;20415;-76
2023/06/16 04:06:20;;;;;;;6.63;6.03;;;20.20;99.90;;;;;;5070601;28;20411;-75
2023/06/16 04:08:46;;;;;;;7.00;6.30;;;20.30;99.90;;;;;;5053011;28;20560;-75
2023/06/16 04:11:14;;;;;;;7.37;5.90;;;20.40;99.90;;;;;;5052807;28;20413;-75
2023/06/16 04:13:41;;;;;;;6.80;6.10;;;20.40;99.90;;;;;;5053446;28;20427;-75
2023/06/16 04:16:07;;;;;;;6.78;6.07;;;20.50;99.90;;;;;;5048616;28;20507;-75
2023/06/16 04:18:35;;;;;;;7.00;6.30;;;20.50;99.90;;;;;;5068296;28;20998;-75
2023/06/16 04:21:01;;;;;;;6.95;6.28;;;20.60;99.90;;;;;;5050812;28;20424;-75
2023/06/16 04:23:27;;;;;;;6.82;6.15;;;20.60;99.90;;;;;;5051554;28;20415;-75
2023/06/16 04:25:54;;;;;;;7.20;6.45;;;20.60;99.90;;;;;;5052460;28;22482;-75
2023/06/16 04:28:21;;;;;;;6.90;6.28;;;20.70;99.90;;;;;;5052913;28;20503;-76
2023/06/16 04:30:49;;;;;;;7.50;6.63;;;20.80;99.90;;;;;;5048830;28;20425;-75
2023/06/16 04:33:15;;;;;;;7.43;6.63;;;20.80;99.90;;;;;;5047669;28;20416;-75
2023/06/16 04:35:42;;;;;;;6.80;6.20;;;20.90;99.90;;;;;;5051751;28;20965;-75
2023/06/16 04:38:08;;;;;;;7.50;6.60;;;21.00;99.90;;;;;;5052392;28;20430;-76
2023/06/16 04:40:36;;;;;;;7.07;6.38;;;21.00;99.90;;;;;;5051491;28;20415;-75
2023/06/16 04:43:03;;;;;;;7.93;6.10;;;21.00;99.90;;;;;;5051423;28;22511;-76
2023/06/16 04:45:29;;;;;;;6.97;6.28;;;21.10;99.90;;;;;;5067183;28;20952;-76
2023/06/16 04:47:55;;;;;;;6.50;5.90;;;21.10;99.90;;;;;;5055566;28;20429;-73
2023/06/16 04:50:22;;;;;;;6.32;5.72;;;21.20;99.90;;;;;;5056931;28;20832;-75
2023/06/16 04:52:49;;;;;;;6.65;6.00;;;21.20;99.90;;;;;;5054735;28;20915;-74
2023/06/16 04:55:20;;;;;;;8.63;5.82;;;21.20;99.90;;;;;;5062705;28;20428;-74
2023/06/16 04:57:47;;;;;;;6.80;5.77;;;21.30;99.90;;;;;;5054871;28;20478;-76
2023/06/16 05:00:13;;;;;;;7.63;5.90;;;21.40;99.90;;;;;;5054981;28;20897;-75
2023/06/16 05:02:40;;;;;;;7.70;5.80;;;21.40;99.90;;;;;;5052108;28;20481;-76
2023/06/16 05:05:08;;;;;;;6.60;5.90;;;21.50;99.90;;;;;;5049257;28;20929;-76
2023/06/16 05:07:34;;;;;;;6.85;6.10;;;21.50;99.90;;;;;;5046491;28;20409;-75
2023/06/16 05:10:01;;;;;;;6.47;5.82;;;21.50;99.90;;;;;;5050198;28;20409;-76
2023/06/16 05:12:28;;;;;;;6.10;5.50;;;21.60;99.90;;;;;;5051026;28;20441;-76
2023/06/16 05:14:55;;;;;;;8.02;5.55;;;21.60;99.90;;;;;;5053189;28;20429;-75
2023/06/16 05:17:21;;;;;;;7.45;5.80;;;21.70;99.90;;;;;;5051403;28;20421;-75
2023/06/16 05:19:48;;;;;;;8.20;5.68;;;21.80;99.90;;;;;;5063824;28;20419;-75
2023/06/16 05:22:14;;;;;;;8.63;6.05;;;21.80;99.90;;;;;;5045924;28;21099;-75
2023/06/16 05:24:41;;;;;;;11.10;6.13;;;21.90;99.90;;;;;;5053480;28;20540;-75
2023/06/16 05:27:07;;;;;;;9.30;6.43;;;21.90;99.90;;;;;;5048385;28;20414;-75
2023/06/16 05:29:33;;;;;;;8.85;6.53;;;22.00;99.90;;;;;;5035154;28;20413;-75
2023/06/16 05:31:59;;;;;;;8.52;6.05;;;22.00;99.90;;;;;;5052725;28;20421;-75
2023/06/16 05:34:26;;;;;;;7.77;5.80;;;22.10;99.90;;;;;;5049547;28;20818;-76
2023/06/16 05:36:52;;;;;;;9.98;6.18;;;22.10;99.90;;;;;;5054743;28;20420;-74
2023/06/16 05:39:19;;;;;;;7.40;6.28;;;22.10;99.90;;;;;;5046933;28;20426;-75
2023/06/16 05:41:45;;;;;;;6.60;5.63;;;22.20;99.90;;;;;;5059165;28;20514;-75
2023/06/16 05:44:12;;;;;;;6.88;6.00;;;22.30;99.90;;;;;;5050661;28;20538;-75
2023/06/16 05:46:39;;;;;;;6.93;6.20;;;22.40;99.90;;;;;;5054039;28;20457;-75
2023/06/16 05:49:05;;;;;;;7.13;5.72;;;22.40;99.90;;;;;;5050378;28;20523;-75
2023/06/16 05:51:31;;;;;;;8.00;6.10;;;22.40;99.90;;;;;;5049995;28;20582;-75
2023/06/16 05:53:58;;;;;;;7.25;5.70;;;22.50;99.90;;;;;;5051208;28;20415;-75
2023/06/16 05:56:24;;;;;;;7.32;5.70;;;22.60;99.90;;;;;;5040704;28;20414;-75
2023/06/16 05:58:51;;;;;;;6.37;5.63;;;22.70;99.90;;;;;;5049562;28;20409;-75
2023/06/16 06:01:17;;;;;;;8.55;6.35;;;22.70;99.90;;;;;;5048939;28;20506;-75
2023/06/16 06:03:45;;;;;;;9.00;5.90;;;22.80;99.90;;;;;;5046680;28;20404;-76
2023/06/16 06:06:12;;;;;;;7.10;5.85;;;22.80;99.90;;;;;;5061682;28;20421;-75
2023/06/16 06:08:39;;;;;;;7.47;6.10;;;22.90;99.90;;;;;;5054643;28;20493;-76
2023/06/16 06:11:09;;;;;;;7.37;5.77;;;22.90;99.90;;;;;;5053198;28;20544;-75
2023/06/16 06:13:35;;;;;;;8.27;5.83;;;23.00;99.90;;;;;;5049829;28;21080;-75
2023/06/16 06:16:02;;;;;;;8.50;6.07;;;23.10;99.90;;;;;;5053082;28;20887;-75
2023/06/16 06:18:28;;;;;;;6.97;5.90;;;23.20;99.90;;;;;;5045047;28;20413;-75
2023/06/16 06:20:56;;;;;;;7.25;5.45;;;23.30;99.90;;;;;;5040850;28;20628;-76
2023/06/16 06:23:22;;;;;;;6.65;5.80;;;23.40;99.90;;;;;;5042899;28;20417;-75
2023/06/16 06:25:49;;;;;;;10.07;5.40;;;23.60;99.90;;;;;;5045114;28;20415;-75
2023/06/16 06:28:16;;;;;;;6.82;5.50;;;23.80;99.90;;;;;;5048475;28;20415;-75
2023/06/16 06:30:42;;;;;;;6.75;5.35;;;23.80;99.90;;;;;;5044292;28;20419;-76
2023/06/16 06:33:08;;;;;;;7.22;5.60;;;23.80;99.90;;;;;;5041291;28;20931;-77
2023/06/16 06:35:35;;;;;;;7.18;5.40;;;23.90;99.90;;;;;;5041711;28;20412;-76
2023/06/16 06:38:05;;;;;;;7.13;5.30;;;24.00;99.90;;;;;;5035878;28;20423;-77
2023/06/16 06:40:32;;;;;;;7.68;5.13;;;24.00;99.90;;;;;;5049019;28;20431;-76
2023/06/16 06:42:58;;;;;;;9.02;5.10;;;24.20;99.90;;;;;;5031837;28;20409;-76
2023/06/16 06:45:25;;;;;;;5.75;4.88;;;24.50;99.90;;;;;;5046921;28;20929;-75
2023/06/16 06:47:51;;;;;;;6.68;5.05;;;24.60;99.90;;;;;;5047048;28;20734;-76
2023/06/16 06:50:17;;;;;;;6.95;4.80;;;24.60;99.90;;;;;;5053402;28;20913;-75
2023/06/16 06:52:44;;;;;;;9.27;4.95;;;24.70;99.90;;;;;;5047289;28;20939;-76
2023/06/16 06:55:10;;;;;;;5.50;4.90;;;24.80;99.90;;;;;;5058063;28;21148;-76
2023/06/16 06:57:38;;;;;;;5.65;4.63;;;24.70;99.90;;;;;;5047006;28;20420;-75
2023/06/16 07:00:07;;;;;;;5.22;4.70;;;24.70;99.90;;;;;;5043082;28;20423;-74
2023/06/16 07:02:34;;;;;;;4.93;4.40;;;24.70;99.90;;;;;;5043476;28;20421;-73
2023/06/16 07:05:02;;;;;;;6.53;4.38;;;24.80;99.90;;;;;;5048415;28;20417;-75
2023/06/16 07:07:28;;;;;;;7.38;5.03;;;25.10;99.90;;;;;;5050073;28;20506;-73
2023/06/16 07:09:55;;;;;;;5.97;4.30;;;25.10;99.90;;;;;;5047347;28;20777;-73
2023/06/16 07:12:21;;;;;;;7.43;4.50;;;25.30;99.90;;;;;;5043302;28;20467;-73
2023/06/16 07:14:49;;;;;;;5.28;4.65;;;25.50;99.90;;;;;;5049642;28;20423;-73
2023/06/16 07:17:16;;;;;;;5.07;4.50;;;25.70;99.90;;;;;;5054701;28;20496;-73
2023/06/16 07:19:42;;;;;;;5.80;4.78;;;25.60;99.90;;;;;;5046625;28;20408;-73
2023/06/16 07:22:09;;;;;;;5.35;4.85;;;25.70;99.90;;;;;;5037351;28;20430;-73
2023/06/16 07:24:36;;;;;;;6.97;4.50;;;25.80;99.90;;;;;;5045569;28;20426;-73
2023/06/16 07:27:03;;;;;;;7.25;4.72;;;26.00;99.90;;;;;;5033723;28;20424;-73
2023/06/16 07:29:30;;;;;;;5.97;4.28;;;26.00;99.90;;;;;;5050769;28;20481;-71
2023/06/16 07:31:56;;;;;;;5.13;4.50;;;26.00;99.90;;;;;;5052533;28;20803;-73
2023/06/16 07:34:23;;;;;;;6.90;4.70;;;26.10;99.90;;;;;;5048272;28;20465;-72
2023/06/16 07:36:49;;;;;;;6.32;4.70;;;26.10;99.90;;;;;;5052796;28;20418;-71
2023/06/16 07:39:17;;;;;;;5.97;4.30;;;26.30;99.90;;;;;;5051171;28;20425;-75
2023/06/16 07:41:43;;;;;;;6.07;4.65;;;26.40;99.90;;;;;;5056674;28;20415;-75
2023/06/16 07:44:09;;;;;;;8.52;4.50;;;26.50;99.90;;;;;;5051193;28;20416;-75
2023/06/16 07:46:35;;;;;;;7.22;4.53;;;26.60;99.90;;;;;;5053877;28;20720;-75
2023/06/16 07:49:02;;;;;;;6.00;4.47;;;26.80;99.90;;;;;;5048141;28;20417;-75
2023/06/16 07:51:28;;;;;;;9.17;4.80;;;26.90;99.90;;;;;;5062385;28;20426;-75
2023/06/16 07:53:55;;;;;;;8.20;4.53;;;26.90;99.90;;;;;;5048723;28;20426;-75
2023/06/16 07:56:21;;;;;;;6.95;4.43;;;27.00;99.90;;;;;;5051146;28;21253;-74
2023/06/16 07:58:47;;;;;;;7.60;4.00;;;27.10;99.90;;;;;;5048017;28;20411;-75
2023/06/16 08:01:14;;;;;;;6.20;4.03;;;27.20;99.90;;;;;;5064406;28;20803;-75
2023/06/16 08:03:46;;;;;;;6.23;4.20;;;27.30;99.90;;;;;;5039173;28;20410;-75
2023/06/16 08:06:12;;;;;;;6.43;3.88;;;27.50;99.90;;;;;;5048502;28;20986;-75
2023/06/16 08:08:39;;;;;;;6.00;3.80;;;27.60;99.90;;;;;;5050195;28;20801;-75
2023/06/16 08:11:06;;;;;;;8.43;4.05;;;27.60;99.90;;;;;;5066410;28;20417;-75
2023/06/16 08:13:32;;;;;;;6.50;3.75;;;27.80;99.90;;;;;;5051482;28;20411;-73
2023/06/16 08:16:00;;;;;;;5.53;3.67;;;27.80;99.90;;;;;;5038955;28;20413;-75
2023/06/16 08:18:26;;;;;;;5.45;4.00;;;27.90;99.90;;;;;;5048994;28;20564;-75
2023/06/16 08:20:53;;;;;;;6.63;3.83;;;27.90;99.90;;;;;;5051516;28;20747;-75
2023/06/16 08:23:20;;;;;;;6.95;3.88;;;27.90;99.90;;;;;;5050660;28;20431;-73
2023/06/16 08:25:47;;;;;;;6.72;3.88;;;28.00;99.90;;;;;;5056576;28;20512;-75
2023/06/16 08:28:14;;;;;;;5.70;3.83;;;28.10;99.90;;;;;;5052175;28;20420;-75
2023/06/16 08:30:40;;;;;;;4.95;3.70;;;28.20;99.90;;;;;;5049146;28;20963;-75
2023/06/16 08:33:09;;;;;;;6.63;3.78;;;28.30;99.90;;;;;;5049474;28;20504;-75
2023/06/16 08:35:35;;;;;;;6.93;3.90;;;28.30;99.90;;;;;;5053206;28;20521;-75
2023/06/16 08:38:01;;;;;;;8.65;3.95;;;28.40;99.90;;;;;;5062165;28;20512;-75
2023/06/16 08:40:28;;;;;;;8.15;3.85;;;28.40;99.90;;;;;;5049753;28;20415;-75
2023/06/16 08:42:55;;;;;;;7.35;3.67;;;28.40;99.90;;;;;;5063906;28;20915;-75
2023/06/16 08:45:23;;;;;;;7.82;3.80;;;28.40;99.90;;;;;;5069753;28;21110;-75
2023/06/16 08:47:50;;;;;;;5.95;3.80;;;28.50;99.90;;;;;;5053267;28;20407;-75
2023/06/16 08:50:22;;;;;;;6.80;3.70;;;28.70;99.90;;;;;;5063177;28;20446;-75
2023/06/16 08:52:52;;;;;;;5.25;3.50;;;28.70;99.90;;;;;;5070055;28;21033;-75
2023/06/16 08:55:20;;;;;;;6.68;3.90;;;28.70;99.90;;;;;;5053439;28;20419;-75
2023/06/16 08:57:54;;;;;;;5.37;3.53;;;28.90;99.90;;;;;;5050960;28;20404;-75
2023/06/16 09:00:21;;;;;;;6.95;3.80;;;28.90;99.90;;;;;;5050054;28;20413;-75
2023/06/16 09:02:49;;;;;;;10.23;3.60;;;28.90;99.90;;;;;;5048981;28;20419;-75
2023/06/16 09:05:18;;;;;;;8.63;4.00;;;28.80;99.90;;;;;;5057282;28;20412;-75
2023/06/16 09:07:45;;;;;;;9.82;4.22;;;28.90;99.90;;;;;;5063411;28;20456;-75
2023/06/16 09:10:11;;;;;;;7.80;4.20;;;29.00;99.90;;;;;;5048595;28;20503;-75
2023/06/16 09:12:38;;;;;;;6.63;3.78;;;28.90;99.90;;;;;;5048955;28;20413;-75
2023/06/16 09:15:11;;;;;;;6.85;3.90;;;29.00;99.90;;;;;;5049263;28;20532;-75
2023/06/16 09:17:39;;;;;;;8.60;4.25;;;29.00;99.90;;;;;;5049493;28;20512;-75
2023/06/16 09:20:14;;;;;;;6.20;3.92;;;29.00;99.90;;;;;;5048320;28;20407;-75
2023/06/16 09:22:40;;;;;;;5.28;3.67;;;29.10;99.90;;;;;;5037144;28;20411;-75
2023/06/16 09:25:12;;;;;;;9.37;3.57;;;29.10;99.90;;;;;;5046856;28;20543;-75
2023/06/16 09:27:45;;;;;;;6.82;4.10;;;29.20;99.90;;;;;;5048454;28;20473;-75
2023/06/16 09:30:18;;;;;;;9.93;3.83;;;29.20;99.90;;;;;;5047832;28;20445;-75
2023/06/16 09:32:54;;;;;;;10.17;3.70;;;29.10;99.90;;;;;;5052531;28;21157;-75
2023/06/16 09:35:30;;;;;;;6.00;3.80;;;29.20;99.90;;;;;;5058623;28;21315;-75
2023/06/16 09:38:03;;;;;;;7.65;4.03;;;29.10;99.90;;;;;;5052249;28;20771;-75
2023/06/16 09:40:34;;;;;;;5.43;3.60;;;29.20;99.90;;;;;;5048941;28;20910;-75
2023/06/16 09:43:07;;;;;;;6.30;3.75;;;29.40;99.90;;;;;;5051939;28;20411;-73
2023/06/16 09:45:33;;;;;;;8.55;4.03;;;29.50;99.90;;;;;;5055089;28;20428;-73
2023/06/16 09:48:06;;;;;;;6.33;3.70;;;29.70;99.90;;;;;;5050194;28;20920;-73
2023/06/16 09:50:33;;;;;;;7.18;3.63;;;29.70;99.90;;;;;;5048323;28;20482;-73
2023/06/16 09:53:07;;;;;;;4.10;3.20;;;29.80;99.90;;;;;;5049709;28;20421;-73
2023/06/16 09:55:39;;;;;;;5.23;3.50;;;29.80;99.90;;;;;;5050705;28;20419;-73
2023/06/16 09:58:06;;;;;;;5.45;3.67;;;30.00;99.90;;;;;;5048315;28;20411;-73
2023/06/16 10:00:33;;;;;;;5.35;3.60;;;29.90;99.90;;;;;;5050205;28;20538;-73
2023/06/16 10:03:04;;;;;;;6.72;3.80;;;30.00;99.90;;;;;;5050801;28;20410;-73
2023/06/16 10:05:34;;;;;;;7.05;3.72;;;30.00;99.90;;;;;;5052548;28;20753;-73
2023/06/16 10:08:06;;;;;;;6.75;3.47;;;29.90;99.90;;;;;;5042713;28;20479;-73
2023/06/16 10:10:36;;;;;;;4.93;3.27;;;30.10;99.90;;;;;;5050663;28;20417;-73
2023/06/16 10:13:08;;;;;;;8.07;3.40;;;30.20;99.90;;;;;;5045566;28;20516;-73
2023/06/16 10:15:41;;;;;;;6.57;3.50;;;30.30;99.90;;;;;;5048445;28;20424;-73
2023/06/16 10:18:12;;;;;;;6.85;3.40;;;30.20;99.90;;;;;;5051526;28;20407;-73
2023/06/16 10:20:40;;;;;;;5.38;3.50;;;30.10;99.90;;;;;;5053361;28;20416;-73
2023/06/16 10:23:08;;;;;;;5.95;3.65;;;30.30;99.90;;;;;;5050739;28;20821;-73
2023/06/16 10:25:36;;;;;;;5.00;3.30;;;30.40;99.90;;;;;;5051948;28;20789;-73
2023/06/16 10:28:10;;;;;;;7.28;3.30;;;30.50;99.90;;;;;;5045461;28;21088;-71
2023/06/16 10:30:39;;;;;;;6.75;3.45;;;30.30;99.90;;;;;;5056593;28;20406;-74
2023/06/16 10:33:26;;;;;;;5.47;3.40;;;30.30;99.90;;;;;;5032256;28;20412;-73
2023/06/16 10:35:59;;;;;;;3.70;3.20;;;30.30;99.90;;;;;;5057543;28;20457;-73
2023/06/16 10:38:36;;;;;;;5.55;3.67;;;30.30;99.90;;;;;;5058295;28;20418;-73
2023/06/16 10:41:06;;;;;;;7.30;3.30;;;30.10;99.90;;;;;;5055189;28;20440;-73
2023/06/16 10:43:32;;;;;;;6.13;3.42;;;30.20;99.90;;;;;;5071264;28;20859;-73
2023/06/16 10:46:17;;;;;;;5.60;3.10;;;30.20;99.90;;;;;;5063221;28;20929;-73
2023/06/16 10:49:05;;;;;;;6.93;3.72;;;30.00;99.90;;;;;;5036889;28;20429;-72
2023/06/16 10:51:48;;;;;;;9.02;3.30;;;30.10;99.90;;;;;;5058368;28;20408;-73
2023/06/16 10:54:36;;;;;;;5.72;3.10;;;30.10;99.90;;;;;;5052018;28;20445;-73
2023/06/16 10:57:08;;;;;;;7.88;2.95;;;30.00;99.90;;;;;;5039932;28;20411;-76
2023/06/16 11:00:14;;;;;;;6.35;3.50;;;29.90;99.90;;;;;;5058701;28;20527;-76
2023/06/16 11:02:52;;;;;;;7.13;3.10;;;29.90;99.90;;;;;;5051499;28;20426;-76
2023/06/16 11:05:22;;;;;;;60.30;5.80;;;29.80;99.90;;;;;;5051211;28;21283;-76
2023/06/16 11:08:08;;;;;;;6.78;3.10;;;29.80;99.90;;;;;;5051884;28;20828;-76
2023/06/16 11:10:51;;;;;;;5.18;2.80;;;29.70;99.90;;;;;;5051423;28;20407;-77
2023/06/16 11:13:26;;;;;;;4.72;3.05;;;29.80;99.90;;;;;;5056091;28;20464;-77
2023/06/16 11:15:56;;;;;;;5.63;3.20;;;29.70;99.90;;;;;;5055209;28;20429;-76
2023/06/16 11:18:33;;;;;;;6.43;3.30;;;29.70;99.90;;;;;;5053166;28;20504;-77
2023/06/16 11:21:04;;;;;;;5.70;2.90;;;29.80;99.90;;;;;;5053911;28;20454;-76
2023/06/16 11:23:31;;;;;;;5.97;3.33;;;29.70;99.90;;;;;;5045477;28;20491;-76
2023/06/16 11:26:10;;;;;;;7.03;3.28;;;29.60;99.90;;;;;;5051821;28;20417;-76
2023/06/16 11:28:40;;;;;;;8.80;3.37;;;29.90;99.90;;;;;;5052328;28;20924;-76
2023/06/16 11:31:12;;;;;;;6.20;3.40;;;30.00;99.90;;;;;;5035209;28;20410;-76
2023/06/16 11:33:40;;;;;;;7.43;3.30;;;29.90;99.90;;;;;;5036475;28;20419;-76
2023/06/16 11:36:22;;;;;;;5.40;3.27;;;30.00;99.90;;;;;;5052096;28;21059;-76
2023/06/16 11:38:56;;;;;;;9.85;3.58;;;29.90;99.90;;;;;;5056013;28;20413;-77
2023/06/16 11:41:29;;;;;;;6.13;3.15;;;29.80;99.90;;;;;;5050654;28;20425;-76
2023/06/16 11:43:56;;;;;;;7.90;3.35;;;29.70;99.90;;;;;;5051163;28;20519;-76
2023/06/16 11:46:32;;;;;;;8.15;3.63;;;29.70;99.90;;;;;;5049657;28;20510;-75
2023/06/16 11:49:04;;;;;;;8.07;3.58;;;29.60;99.90;;;;;;5064383;28;20782;-77
2023/06/16 11:51:30;;;;;;;6.37;3.50;;;29.60;99.90;;;;;;5037802;28;20546;-76
2023/06/16 11:53:58;;;;;;;6.97;3.60;;;29.40;99.90;;;;;;5046975;28;20409;-76
2023/06/16 11:56:26;;;;;;;7.05;3.55;;;29.30;99.90;;;;;;5051543;28;20427;-76
2023/06/16 11:58:53;;;;;;;8.70;3.60;;;29.40;99.90;;;;;;5054073;28;20447;-76
2023/06/16 12:01:22;;;;;;;8.45;3.58;;;29.50;99.90;;;;;;5056546;28;20419;-76
2023/06/16 12:03:59;;;;;;;7.55;4.47;;;29.40;99.90;;;;;;5035222;28;20421;-76
2023/06/16 12:06:27;;;;;;;7.05;4.03;;;29.30;99.90;;;;;;5061988;28;20419;-76
2023/06/16 12:08:56;;;;;;;6.35;3.70;;;29.20;99.90;;;;;;5055257;28;20895;-76
2023/06/16 12:11:28;;;;;;;5.22;3.50;;;29.20;99.90;;;;;;5055466;28;20426;-76
2023/06/16 12:13:56;;;;;;;6.28;3.17;;;29.20;99.90;;;;;;5060326;28;21076;-76
2023/06/16 12:16:23;;;;;;;5.10;3.10;;;29.20;99.90;;;;;;5057049;28;20969;-76
2023/06/16 12:18:52;;;;;;;5.28;3.45;;;29.10;99.90;;;;;;5042026;28;20751;-76
2023/06/16 12:21:25;;;;;;;5.07;3.23;;;29.10;99.90;;;;;;5063931;28;20420;-76
2023/06/16 12:23:56;;;;;;;4.68;3.30;;;29.10;99.90;;;;;;5065135;28;20494;-76
2023/06/16 12:26:43;;;;;;;4.93;3.08;;;29.10;99.90;;;;;;5053463;28;20417;-76
2023/06/16 12:29:16;;;;;;;5.57;3.40;;;29.00;99.90;;;;;;5037440;28;20411;-76
2023/06/16 12:31:58;;;;;;;4.82;2.92;;;29.00;99.90;;;;;;5056043;28;20402;-76
2023/06/16 12:34:30;;;;;;;3.67;3.05;;;28.90;99.90;;;;;;5062091;28;20460;-76
2023/06/16 12:37:03;;;;;;;5.40;2.75;;;28.80;99.90;;;;;;5063428;28;20411;-76
2023/06/16 12:39:30;;;;;;;4.80;3.20;;;28.80;99.90;;;;;;5049304;28;20407;-76
2023/06/16 12:41:58;;;;;;;4.40;3.07;;;28.80;99.90;;;;;;5055321;28;20411;-76
2023/06/16 12:45:02;;;;;;;5.32;3.17;;;28.90;99.90;;;;;;5036522;28;20478;-76
2023/06/16 12:47:32;;;;;;;7.00;3.13;;;29.10;99.90;;;;;;5056577;28;20416;-77
2023/06/16 12:50:02;;;;;;;7.07;3.60;;;29.20;99.90;;;;;;5046933;28;20431;-76
2023/06/16 13:07:13;;;;;;;6.28;3.40;;;29.50;99.90;;;;;;5053197;28;20900;-76
2023/06/16 13:09:41;;;;;;;7.43;3.60;;;29.40;99.90;;;;;;5049577;28;20424;-76